Lyman, Wyoming
Current Conditions -  °F | °C
As of 5:55 AM on Saturday 25 Oct 2014 (Local Time) from KFBR Reporting Station
Clear Clear  
Wind Chill: 43°   Ceiling: Unl
Heat Index: 43°   Visibility: NA
Dew Point: 17°   Wind: 0mph
Humidity: 35%   Direction: NA
Pressure: 30.27"   Gusts: NA
Location:  41.33°N, 110.29°W
Report Text: KFBR 251155Z AUTO 00000KT CLR 06/M08 A3027 RMK AO2 T00621085 10127 20054 PWINO
Loading
Personal Weather Stations






























Interactive Weather Map
Tropical Storm Tracking
New forecast layout! Learn more

10-Day Weather Forecast

Advertisements
Track Severe Weather on mobile